El Rito, NM (87530)

12:17 PM MDT on September 18, 2014 (GMT -0600)
Los Alamos | Change Station
CLOSE
Current Station
Airport
Location: Los Alamos,
Elevation: 7172 ft
Nearby Weather Stations

Elev 7172 ft 35.88 °N, 106.27 °W | Updated 22 minutes ago

Clear
Clear
70 °F
Feels Like 70 °F
N
5
Wind Variable Wind from NE

Today
High -- | Low -- °F
--% Chance of Precip.
Yesterday
High -- | Low -- °F
Precip. -- in
6:49 AM 7:07 PM
Waning Crescent, 25% visible
Pressure 30.19 in
Visibility 10.0 miles
Clouds Clear
Dew Point 39 °F
Humidity 31%
Rainfall 0.00 in
Snow Depth 0 in , 0 in , 0 in
UV 9 out of 12
Pollen 6.00 out of 12
Air Quality Not available.
Flu Activity Not available.
METAR KLAM 181755Z AUTO 04004KT 10SM CLR 21/04 A3019 RMK AO2 T02140037 10214 20113

More Conditions Fewer Conditions

Pressure 30.19 in
Visibility 10.0 miles
Clouds Clear
Dew Point 39 °F
Humidity 31%
Rainfall 0.00 in
Snow Depth 0 in , 0 in , 0 in
UV 9 out of 12
Pollen 6.00 out of 12
Air Quality Not available.
Flu Activity Not available.
METAR KLAM 181755Z AUTO 04004KT 10SM CLR 21/04 A3019 RMK AO2 T02140037 10214 20113

More Conditions Fewer Conditions

10-Day Weather Forecast

Almanac

Astronomy

Sep. 18, 2014 Rise Set
Actual Time 6:49 AM MDT 7:07 PM MDT
Civil Twilight 6:24 AM MDT 7:33 PM MDT
Nautical Twilight 5:53 AM MDT 8:03 PM MDT
Astronomical Twilight 5:23 AM MDT 8:34 PM MDT
Moon 1:51 AM MDT 3:54 PM MDT
Length of Visible Light 13h 09m
Length of Day
12h 17m
Tomorrow will be 2m 17s shorter.
Waning Crescent, 25% of the Moon is Illuminated
Today
Waning Crescent
Sep 24
New
Oct 1
First Quarter
Oct 8
Full
Oct 15
Last Quarter

Today's Extremes

State Highs State Lows

Community

WunderPhotos

Upload Photos

1,754,410 photos uploaded!

Nearby

Snow Depth

Station Depth Elevation
Santa Fe 0 in 11445 ft
Tolby 0 in 10180 ft
Quemazon 0 in 9500 ft
Gallegos Peak 0 in 9800 ft
McKnight Cabin 0 in 9240 ft

Earthquake Activity

City Distance Mag. Time & Date
No recent earthquake activity has been reported nearby.
Minimum magnitude displayed is 2.5.

Coastal Water Temperatures

Place Temperature
No Stations Reporting

Nearby Weather Stations